General Aviation Weather

Text Reports

Enter one or more of the following location identifiers separated by a space:

Zip Code, Four-Character ICAO or Three-Character IATA airport codes.

METAR - Aviation Routine Weather Report
KGYB - Giddings, Texas
Updated at 4:55 AM GMT on August 22, 2014 (11:55 PM CDT):
METAR KGYB 220455Z AUTO 17007G15KT 140V210 10SM SCT019 28/23 A3009 RMK AO2 T02750231
TAF - Terminal Area Forecast
KGYB - Giddings, Texas
Updated at 4:55 AM GMT on August 22, 2014 (11:55 PM CDT):
No TAF is currently available for this location.
Decoded:
No decoded TAF is available.
PIREP - Pilot Weather Report
KGYB - Giddings, Texas
Updated at 4:55 AM GMT on August 22, 2014 (11:55 PM CDT):
No PIREP is currently available for this location.
AIRMET - Airmens Meteorological Information
KGYB - Giddings, Texas
Updated at 4:55 AM GMT on August 22, 2014 (11:55 PM CDT):
No AIRMET is currently available for this location.
SIGMET - Significant Meteorological Information
KGYB - Giddings, Texas
Updated at 4:55 AM GMT on August 22, 2014 (11:55 PM CDT):
No SIGMET is currently available for this location.
NOTAM - Notice to Airmen
KGYB - Giddings, Texas
Updated at 4:55 AM GMT on August 22, 2014 (11:55 PM CDT):
No NOTAM is currently available for this location.
Forecast Area
KGYB - Giddings, Texas
Updated at 4:55 AM GMT on August 22, 2014 (11:55 PM CDT):
No NOTAM is currently available for this location.
Aviation Weather Maps